Time;durP1;ratioP1;P1;durP2;ratioP2;P2;SDS_P1;SDS_P2;PMS_P1;PMS_P2;Temp;Humidity;BMP_temperature;BMP_pressure;BME280_temperature;BME280_humidity;BME280_pressure;Samples;Min_cycle;Max_cycle;Signal;HPM_P1;HPM_P2
2022/01/20 00:00:21;;;;;;;8.70;6.35;;;;;;;4.53;93.87;98803.00;4069105;29;20211;-82
2022/01/20 00:02:26;;;;;;;10.07;7.00;;;;;;;4.49;94.00;98796.25;4074167;29;20761;-82
2022/01/20 00:04:40;;;;;;;8.80;6.25;;;;;;;4.41;93.97;98806.81;4072907;29;20724;-82
2022/01/20 00:09:23;;;;;;;9.20;6.45;;;;;;;4.18;93.62;98805.03;4062129;29;20224;-83
2022/01/20 00:23:40;;;;;;;12.40;6.95;;;;;;;4.05;93.46;98801.16;4074218;29;20596;-83
2022/01/20 00:28:13;;;;;;;9.48;6.47;;;;;;;4.17;93.91;98795.63;4061383;29;20691;-83
2022/01/20 00:30:36;;;;;;;9.60;6.40;;;;;;;4.20;92.20;98800.69;4073942;29;20248;-83
2022/01/20 00:32:49;;;;;;;11.25;6.82;;;;;;;4.21;92.42;98801.47;4091357;29;20813;-83
2022/01/20 00:37:16;;;;;;;9.63;6.45;;;;;;;4.32;91.96;98804.53;4074261;29;20627;-83
2022/01/20 00:39:20;;;;;;;8.50;6.10;;;;;;;4.31;92.02;98809.75;4074148;29;20217;-83
2022/01/20 00:41:24;;;;;;;10.82;6.80;;;;;;;4.29;92.04;98819.28;4068898;29;20221;-83
2022/01/20 00:43:27;;;;;;;9.90;6.80;;;;;;;4.28;92.14;98812.41;4072951;29;20218;-83
2022/01/20 00:45:31;;;;;;;10.45;7.40;;;;;;;4.29;91.88;98812.38;4073184;29;20736;-83
2022/01/20 00:47:35;;;;;;;9.32;6.40;;;;;;;4.36;92.12;98820.75;4055628;29;20208;-82
2022/01/20 00:49:38;;;;;;;9.77;6.72;;;;;;;4.36;91.56;98825.91;4072800;29;20231;-83
2022/01/20 00:51:42;;;;;;;10.00;7.00;;;;;;;4.42;91.92;98826.59;4073081;29;20262;-83
2022/01/20 00:53:45;;;;;;;10.23;6.70;;;;;;;4.44;91.77;98813.63;4061238;29;20688;-83
2022/01/20 00:55:50;;;;;;;8.50;5.72;;;;;;;4.43;92.17;98820.50;4075511;29;20223;-83
2022/01/20 00:57:54;;;;;;;10.00;6.70;;;;;;;4.40;91.06;98827.53;4073639;29;20574;-83
2022/01/20 00:59:57;;;;;;;11.05;7.32;;;;;;;4.42;90.83;98811.09;4060550;29;20214;-83
2022/01/20 01:02:01;;;;;;;9.40;6.70;;;;;;;4.43;91.05;98823.09;4074002;29;20298;-83
2022/01/20 01:04:05;;;;;;;9.80;7.47;;;;;;;4.45;90.46;98825.63;4076454;29;20297;-83
2022/01/20 01:06:20;;;;;;;8.43;6.03;;;;;;;4.47;90.18;98829.03;4078424;29;20675;-83
2022/01/20 01:08:23;;;;;;;9.82;6.68;;;;;;;4.43;90.41;98833.41;4076702;29;20197;-83
2022/01/20 01:10:29;;;;;;;11.25;6.70;;;;;;;4.41;90.92;98835.22;4058442;29;20223;-83
2022/01/20 01:12:40;;;;;;;13.30;7.50;;;;;;;4.42;90.75;98843.78;4073336;29;20306;-83
2022/01/20 01:14:48;;;;;;;11.00;7.55;;;;;;;4.39;90.72;98846.47;4070448;29;20239;-82
2022/01/20 01:21:43;;;;;;;11.93;7.57;;;;;;;4.27;90.90;98842.56;4074518;29;20211;-83
2022/01/20 01:23:48;;;;;;;14.68;8.02;;;;;;;4.28;90.51;98833.94;4078361;29;20214;-83
2022/01/20 01:25:51;;;;;;;9.93;7.20;;;;;;;4.28;90.82;98823.63;4071573;29;20226;-83
2022/01/20 01:27:57;;;;;;;9.88;7.05;;;;;;;4.28;91.23;98830.50;4075680;29;20262;-83
2022/01/20 01:30:13;;;;;;;9.82;6.93;;;;;;;4.27;90.99;98826.25;4071254;29;20493;-83
2022/01/20 01:32:19;;;;;;;10.38;7.25;;;;;;;4.26;90.83;98819.38;4078177;29;20203;-83
2022/01/20 01:34:27;;;;;;;10.73;6.93;;;;;;;4.26;92.13;98817.63;4073264;29;20238;-83
2022/01/20 01:36:44;;;;;;;10.52;6.97;;;;;;;4.26;91.66;98822.78;4075662;29;20268;-83
2022/01/20 01:38:49;;;;;;;10.15;7.10;;;;;;;4.24;90.90;98822.00;4090149;29;20421;-83
2022/01/20 01:40:52;;;;;;;11.18;7.47;;;;;;;4.23;91.22;98816.91;4072719;29;20225;-82
2022/01/20 01:42:57;;;;;;;9.65;6.88;;;;;;;4.20;91.72;98817.81;4075443;29;20732;-82
2022/01/20 01:45:06;;;;;;;11.15;7.70;;;;;;;4.18;91.45;98821.38;4070585;29;20210;-83
2022/01/20 01:47:09;;;;;;;10.07;7.30;;;;;;;4.18;91.27;98815.34;4073312;29;20271;-83
2022/01/20 01:49:13;;;;;;;11.00;7.63;;;;;;;4.19;91.61;98823.03;4076423;29;20298;-83
2022/01/20 01:51:16;;;;;;;10.77;7.53;;;;;;;4.20;91.25;98819.56;4085711;29;20301;-83
2022/01/20 01:53:22;;;;;;;10.80;7.45;;;;;;;4.21;92.00;98816.94;4088011;29;20217;-83
2022/01/20 01:55:25;;;;;;;11.25;6.88;;;;;;;4.25;91.78;98812.53;4073715;29;20207;-83
2022/01/20 01:57:29;;;;;;;9.90;7.45;;;;;;;4.23;91.58;98810.00;4059984;29;20252;-83
2022/01/20 01:59:33;;;;;;;11.85;7.45;;;;;;;4.27;92.44;98813.34;4068609;29;20259;-83
2022/01/20 02:01:59;;;;;;;10.18;7.05;;;;;;;4.31;92.22;98813.16;4069944;29;20214;-83
2022/01/20 02:04:14;;;;;;;11.30;6.97;;;;;;;4.32;91.71;98825.19;4087055;29;20226;-83
2022/01/20 02:06:52;;;;;;;11.10;7.55;;;;;;;4.32;92.37;98809.69;4070912;29;20195;-83
2022/01/20 02:09:10;;;;;;;11.00;7.18;;;;;;;4.33;91.86;98810.53;4057620;29;20214;-83
2022/01/20 02:18:36;;;;;;;11.23;7.85;;;;;;;4.36;91.95;98795.81;4058600;29;20296;-83
2022/01/20 02:20:56;;;;;;;9.50;7.10;;;;;;;4.38;91.46;98798.34;4079377;29;20853;-83
2022/01/20 02:22:59;;;;;;;10.70;7.00;;;;;;;4.39;91.13;98787.09;4061519;29;20211;-83
2022/01/20 02:25:21;;;;;;;11.50;7.75;;;;;;;4.41;91.52;98793.06;4058640;29;20337;-83
2022/01/20 02:27:24;;;;;;;10.57;7.32;;;;;;;4.41;92.18;98788.75;4076000;29;20238;-83
2022/01/20 02:29:27;;;;;;;10.48;6.97;;;;;;;4.44;90.96;98787.81;4067212;29;20306;-83
2022/01/20 02:31:31;;;;;;;10.13;6.63;;;;;;;4.45;91.16;98789.47;4074183;29;20234;-83
2022/01/20 02:33:35;;;;;;;9.93;7.00;;;;;;;4.43;90.82;98792.09;4055817;29;20238;-83
2022/01/20 02:35:40;;;;;;;9.15;6.75;;;;;;;4.38;91.23;98791.44;4076427;29;20215;-83
2022/01/20 02:38:16;;;;;;;10.20;7.38;;;;;;;4.38;91.40;98796.59;4074657;29;20199;-83
2022/01/20 02:44:49;;;;;;;9.45;6.68;;;;;;;4.37;91.86;98799.22;4074495;29;20207;-83
2022/01/20 02:45:14;;;;;;;10.07;7.30;;;;;;;4.38;91.98;98804.34;4072944;29;20249;-83
2022/01/20 02:47:17;;;;;;;11.10;6.22;;;;;;;4.39;92.27;98803.44;4061419;29;20211;-83
2022/01/20 02:49:20;;;;;;;7.20;5.32;;;;;;;4.41;92.93;98799.06;4073882;29;20217;-83
2022/01/20 02:51:24;;;;;;;7.72;4.95;;;;;;;4.48;92.99;98802.28;4075487;29;20794;-83
2022/01/20 02:53:32;;;;;;;7.85;5.70;;;;;;;4.55;92.28;98806.38;4075660;29;20270;-83
2022/01/20 02:55:35;;;;;;;6.07;4.00;;;;;;;4.60;93.07;98809.63;4070910;29;20207;-83
2022/01/20 02:57:38;;;;;;;5.63;3.38;;;;;;;4.63;93.70;98797.47;4071800;29;20222;-83
2022/01/20 02:59:41;;;;;;;4.03;3.33;;;;;;;4.68;94.26;98804.16;4085049;29;20630;-83
2022/01/20 03:01:44;;;;;;;4.70;3.70;;;;;;;4.74;92.99;98795.38;4057689;29;20669;-83
2022/01/20 03:03:50;;;;;;;5.15;3.58;;;;;;;4.78;93.17;98795.22;4074806;29;20684;-83
2022/01/20 03:05:53;;;;;;;4.07;3.40;;;;;;;4.85;93.74;98793.25;4072751;29;20222;-83
2022/01/20 03:07:57;;;;;;;4.10;3.25;;;;;;;4.90;93.65;98794.78;4059788;29;22689;-82
2022/01/20 03:10:02;;;;;;;3.70;2.95;;;;;;;4.93;93.34;98796.41;4074092;29;20214;-82
2022/01/20 03:12:06;;;;;;;3.95;3.05;;;;;;;4.91;93.89;98798.22;4057486;29;20235;-83
2022/01/20 03:14:09;;;;;;;3.15;2.80;;;;;;;4.93;93.59;98793.81;4085724;29;20564;-83
2022/01/20 03:16:13;;;;;;;4.32;3.45;;;;;;;5.00;94.45;98803.06;4071583;29;20735;-82
2022/01/20 03:18:16;;;;;;;4.15;3.30;;;;;;;4.97;94.22;98810.91;4075086;29;20210;-83
2022/01/20 03:20:19;;;;;;;4.00;3.20;;;;;;;4.96;94.17;98809.22;4069894;29;20208;-83
2022/01/20 03:22:22;;;;;;;4.80;3.70;;;;;;;5.01;94.01;98809.91;4060713;29;20207;-83
2022/01/20 03:24:26;;;;;;;4.45;3.70;;;;;;;5.01;93.95;98799.59;4068452;29;20336;-82
2022/01/20 03:26:30;;;;;;;5.30;3.53;;;;;;;5.03;94.44;98800.38;4074767;29;20263;-83
2022/01/20 03:28:33;;;;;;;4.50;3.50;;;;;;;5.05;93.69;98795.97;4084926;29;20221;-83
2022/01/20 03:30:36;;;;;;;5.97;4.10;;;;;;;5.07;94.15;98800.19;4069608;29;20247;-83
2022/01/20 03:32:40;;;;;;;5.00;3.53;;;;;;;5.04;93.38;98802.06;4074079;29;20214;-83
2022/01/20 03:34:45;;;;;;;5.43;4.22;;;;;;;5.02;93.86;98812.47;4070480;29;20211;-83
2022/01/20 03:36:50;;;;;;;6.07;3.80;;;;;;;5.03;94.46;98793.44;4068037;29;20207;-82
2022/01/20 03:38:56;;;;;;;4.20;3.40;;;;;;;5.07;94.45;98799.38;4074044;29;21415;-82
2022/01/20 03:41:00;;;;;;;4.13;3.55;;;;;;;5.08;94.19;98807.03;4068832;29;20231;-82
2022/01/20 03:43:05;;;;;;;4.10;3.63;;;;;;;5.08;94.37;98803.63;4055814;29;20211;-83
2022/01/20 03:45:09;;;;;;;5.63;3.70;;;;;;;5.10;93.55;98801.81;4068905;29;23739;-83
2022/01/20 03:47:14;;;;;;;5.10;4.05;;;;;;;5.13;94.01;98799.13;4073588;29;20210;-83
2022/01/20 03:49:27;;;;;;;4.30;3.40;;;;;;;5.13;93.58;98795.66;4070571;29;20604;-83
2022/01/20 03:51:31;;;;;;;3.78;3.38;;;;;;;5.13;94.35;98785.31;4074414;29;20236;-83
2022/01/20 03:53:38;;;;;;;4.13;3.55;;;;;;;5.15;93.37;98778.34;4076427;29;20211;-83
2022/01/20 03:55:46;;;;;;;5.68;3.70;;;;;;;5.15;93.61;98775.75;4061792;29;20607;-83
2022/01/20 03:57:51;;;;;;;3.92;3.53;;;;;;;5.16;94.33;98776.63;4076891;29;20264;-83
2022/01/20 04:00:05;;;;;;;4.40;3.88;;;;;;;5.16;94.21;98772.28;4060133;29;20211;-83
2022/01/20 04:02:17;;;;;;;4.47;3.72;;;;;;;5.18;94.31;98782.56;4067419;29;20679;-83
2022/01/20 04:04:38;;;;;;;5.00;4.00;;;;;;;5.21;93.99;98782.44;4073180;29;20229;-83
2022/01/20 04:06:50;;;;;;;4.20;3.60;;;;;;;5.22;93.74;98790.16;4060521;29;20350;-83
2022/01/20 04:08:53;;;;;;;4.22;3.80;;;;;;;5.22;93.35;98791.91;4073976;29;20223;-83
2022/01/20 04:10:59;;;;;;;4.68;4.18;;;;;;;5.23;93.37;98794.44;4059588;29;20227;-83
2022/01/20 04:13:02;;;;;;;4.75;3.88;;;;;;;5.25;93.73;98789.22;4072851;29;20871;-83
2022/01/20 04:15:09;;;;;;;5.05;3.88;;;;;;;5.28;93.94;98792.53;4071628;29;20238;-83
2022/01/20 04:17:17;;;;;;;5.50;3.88;;;;;;;5.27;93.20;98792.56;4066281;29;20209;-83
2022/01/20 04:19:20;;;;;;;4.80;3.55;;;;;;;5.24;94.16;98790.09;4071212;29;20203;-83
2022/01/20 04:21:25;;;;;;;4.05;3.60;;;;;;;5.27;94.15;98784.81;4075024;29;20245;-83
2022/01/20 04:23:30;;;;;;;4.97;4.00;;;;;;;5.24;93.44;98790.94;4074571;29;20215;-83
2022/01/20 04:25:33;;;;;;;5.03;4.35;;;;;;;5.25;94.51;98790.03;4069050;29;20795;-83
2022/01/20 04:27:38;;;;;;;4.90;3.90;;;;;;;5.28;94.05;98797.69;4059864;29;20218;-83
2022/01/20 04:29:44;;;;;;;6.32;4.35;;;;;;;5.25;93.35;98787.47;4072927;29;20214;-83
2022/01/20 04:31:50;;;;;;;4.88;4.38;;;;;;;5.27;94.26;98798.56;4072681;29;20226;-83
2022/01/20 04:33:57;;;;;;;5.25;4.38;;;;;;;5.22;94.06;98784.97;4071190;29;20664;-83
2022/01/20 04:36:00;;;;;;;5.10;3.90;;;;;;;5.18;93.86;98798.91;4070223;29;20731;-83
2022/01/20 04:38:04;;;;;;;5.80;4.65;;;;;;;5.18;94.10;98804.06;4057399;29;20259;-83
2022/01/20 04:40:09;;;;;;;5.28;4.60;;;;;;;5.20;94.11;98804.88;4076281;29;20319;-84
2022/01/20 04:42:16;;;;;;;6.07;4.10;;;;;;;5.19;93.78;98794.59;4074159;29;20702;-83
2022/01/20 04:44:32;;;;;;;4.57;3.95;;;;;;;5.19;93.76;98792.84;4077598;29;20698;-83
2022/01/20 04:46:40;;;;;;;5.38;4.80;;;;;;;5.19;93.80;98792.00;4059757;29;20218;-83
2022/01/20 04:49:02;;;;;;;6.35;4.25;;;;;;;5.21;93.85;98779.88;4073303;29;20202;-83
2022/01/20 04:58:23;;;;;;;4.93;4.43;;;;;;;5.22;93.78;98778.97;4052132;29;20306;-83
2022/01/20 05:00:26;;;;;;;7.20;5.53;;;;;;;5.19;94.54;98786.84;4076770;29;20214;-83
2022/01/20 05:02:47;;;;;;;6.00;4.88;;;;;;;5.18;93.67;98796.31;4070638;29;20204;-83
2022/01/20 05:04:53;;;;;;;5.43;4.40;;;;;;;5.15;93.63;98790.44;4073963;29;20259;-84
2022/01/20 05:07:35;;;;;;;5.50;4.53;;;;;;;5.17;93.99;98789.47;4068119;29;20239;-83
2022/01/20 05:09:39;;;;;;;5.65;4.72;;;;;;;5.16;94.50;98786.97;4091406;29;20682;-83
2022/01/20 05:11:46;;;;;;;6.78;5.00;;;;;;;5.15;94.95;98788.66;4071816;29;20231;-82
2022/01/20 05:13:49;;;;;;;6.55;5.22;;;;;;;5.17;94.97;98801.53;4060052;29;20656;-83
2022/01/20 05:15:53;;;;;;;5.60;4.82;;;;;;;5.19;94.60;98794.59;4078293;29;20711;-83
2022/01/20 05:17:56;;;;;;;6.75;4.70;;;;;;;5.20;93.93;98788.50;4064013;29;20291;-83
2022/01/20 05:20:00;;;;;;;6.00;5.32;;;;;;;5.22;94.91;98792.75;4074892;29;20211;-83
2022/01/20 05:22:04;;;;;;;5.18;4.68;;;;;;;5.22;93.69;98790.16;4074042;29;20241;-83
2022/01/20 05:24:15;;;;;;;5.25;4.43;;;;;;;5.24;93.98;98784.94;4076286;29;20211;-83
2022/01/20 05:26:18;;;;;;;6.60;5.15;;;;;;;5.26;94.60;98790.88;4070698;29;20210;-83
2022/01/20 05:28:21;;;;;;;5.78;5.18;;;;;;;5.31;94.37;98791.56;4068103;29;20215;-83
2022/01/20 05:30:25;;;;;;;5.25;4.10;;;;;;;5.26;94.20;98773.66;4068373;29;20226;-83
2022/01/20 05:32:46;;;;;;;5.07;4.35;;;;;;;5.26;93.86;98788.28;4071711;29;20811;-83
2022/01/20 05:34:50;;;;;;;5.35;4.03;;;;;;;5.27;93.50;98796.00;4061883;29;20219;-83
2022/01/20 05:36:54;;;;;;;4.85;4.03;;;;;;;5.26;93.99;98794.31;4059462;29;20294;-83
2022/01/20 05:38:57;;;;;;;5.70;4.45;;;;;;;5.24;93.75;98809.03;4060335;29;20302;-83
2022/01/20 05:41:01;;;;;;;5.43;4.60;;;;;;;5.25;93.44;98813.31;4059181;29;20778;-83
2022/01/20 05:43:04;;;;;;;7.60;4.43;;;;;;;5.25;94.88;98810.72;4075999;29;20223;-83
2022/01/20 05:45:09;;;;;;;7.68;4.90;;;;;;;5.28;93.84;98818.38;4077279;29;20207;-83
2022/01/20 05:47:14;;;;;;;4.82;4.22;;;;;;;5.28;93.18;98826.13;4069875;29;20208;-83
2022/01/20 05:49:36;;;;;;;6.10;4.50;;;;;;;5.34;93.39;98820.75;4072831;29;20217;-83
2022/01/20 05:51:41;;;;;;;5.85;4.40;;;;;;;5.31;93.96;98822.59;4076828;29;20210;-83
2022/01/20 05:53:46;;;;;;;5.88;4.78;;;;;;;5.29;93.09;98812.31;4075064;29;20225;-83
2022/01/20 05:55:50;;;;;;;5.15;4.32;;;;;;;5.30;93.86;98813.97;4075329;29;20306;-83
2022/01/20 05:57:53;;;;;;;6.65;5.05;;;;;;;5.30;93.19;98813.97;4074601;29;20250;-83
2022/01/20 05:59:56;;;;;;;6.53;5.40;;;;;;;5.27;93.49;98816.66;4057214;29;20223;-83
2022/01/20 06:02:11;;;;;;;5.65;4.80;;;;;;;5.27;93.57;98805.50;4062316;29;20211;-83
2022/01/20 06:04:15;;;;;;;6.57;5.60;;;;;;;5.26;92.35;98799.50;4068519;29;20219;-82
2022/01/20 06:06:18;;;;;;;5.43;4.63;;;;;;;5.25;93.00;98807.31;4058990;29;20703;-83
2022/01/20 06:08:22;;;;;;;4.88;4.28;;;;;;;5.21;93.01;98814.31;4060573;29;20246;-83
2022/01/20 06:10:28;;;;;;;5.30;4.60;;;;;;;5.21;93.96;98810.88;4087295;28;20206;-83
2022/01/20 06:12:39;;;;;;;5.57;4.72;;;;;;;5.20;93.39;98809.19;4076731;29;20218;-82
2022/01/20 06:14:42;;;;;;;5.15;4.65;;;;;;;5.16;93.33;98803.28;4073064;29;20207;-83
2022/01/20 06:16:45;;;;;;;6.88;5.53;;;;;;;5.19;93.47;98795.44;4073675;29;20280;-83
2022/01/20 06:18:50;;;;;;;6.22;4.82;;;;;;;5.19;93.76;98807.53;4070954;29;20206;-83
2022/01/20 06:20:54;;;;;;;7.45;5.40;;;;;;;5.22;93.87;98815.16;4060445;29;20625;-83
2022/01/20 06:22:57;;;;;;;5.63;4.72;;;;;;;5.19;93.31;98810.94;4085227;29;20574;-83
2022/01/20 06:25:07;;;;;;;7.18;5.35;;;;;;;5.20;93.84;98804.88;4080513;29;20238;-83
2022/01/20 06:27:11;;;;;;;6.32;4.82;;;;;;;5.19;93.67;98794.59;4057821;29;20211;-83
2022/01/20 06:29:15;;;;;;;6.60;5.30;;;;;;;5.22;93.89;98800.50;4073271;29;20306;-83
2022/01/20 06:31:18;;;;;;;6.75;5.40;;;;;;;5.26;93.55;98809.84;4071074;29;20559;-83
2022/01/20 06:33:22;;;;;;;6.53;5.40;;;;;;;5.29;93.77;98804.56;4070475;29;20230;-83
2022/01/20 06:35:31;;;;;;;6.55;5.40;;;;;;;5.30;93.76;98801.06;4075404;29;20273;-86
2022/01/20 06:37:36;;;;;;;7.45;5.20;;;;;;;5.33;93.26;98800.09;4074883;29;20211;-86
2022/01/20 06:39:39;;;;;;;12.15;6.72;;;;;;;5.35;93.58;98794.00;4073851;29;20218;-86
2022/01/20 06:41:42;;;;;;;6.72;5.30;;;;;;;5.36;93.79;98793.06;4084882;29;20218;-83
2022/01/20 06:43:47;;;;;;;7.60;5.85;;;;;;;5.37;93.21;98787.00;4058811;29;20219;-85
2022/01/20 06:45:52;;;;;;;10.48;6.03;;;;;;;5.35;92.93;98799.16;4075817;29;20213;-86
2022/01/20 06:48:08;;;;;;;8.25;5.57;;;;;;;5.32;93.32;98795.81;4059392;29;20271;-85
2022/01/20 06:50:22;;;;;;;8.18;5.63;;;;;;;5.35;92.99;98806.94;4073309;29;20214;-85
2022/01/20 06:52:26;;;;;;;7.20;6.20;;;;;;;5.37;93.48;98806.88;4060497;29;20216;-85
2022/01/20 06:54:30;;;;;;;9.00;6.72;;;;;;;5.37;93.03;98807.69;4056674;29;20284;-85
2022/01/20 06:56:34;;;;;;;7.53;6.00;;;;;;;5.35;93.07;98799.16;4065875;29;20306;-82
2022/01/20 06:58:49;;;;;;;7.88;6.45;;;;;;;5.35;92.14;98788.81;4072425;29;20206;-82
2022/01/20 07:00:52;;;;;;;9.50;6.20;;;;;;;5.31;92.82;98789.81;4083781;29;20220;-82
2022/01/20 07:03:03;;;;;;;8.60;6.20;;;;;;;5.28;92.47;98789.94;4060172;29;20199;-82
2022/01/20 07:05:07;;;;;;;10.35;7.05;;;;;;;5.27;93.42;98801.16;4076562;29;20294;-83
2022/01/20 07:07:10;;;;;;;13.00;6.75;;;;;;;5.26;92.36;98788.28;4073841;29;20289;-83
2022/01/20 07:09:19;;;;;;;8.73;6.53;;;;;;;5.19;92.72;98792.00;4070330;29;20218;-82
2022/01/20 07:11:24;;;;;;;11.27;7.43;;;;;;;5.13;92.63;98787.91;4083615;29;20568;-82
2022/01/20 07:13:27;;;;;;;10.77;6.95;;;;;;;5.13;92.89;98786.19;4073644;29;20264;-83
2022/01/20 07:15:32;;;;;;;10.55;6.65;;;;;;;5.13;93.13;98784.47;4059153;29;20583;-82
2022/01/20 07:17:35;;;;;;;10.50;7.22;;;;;;;5.15;92.88;98805.94;4074933;29;20207;-83
2022/01/20 07:19:38;;;;;;;10.40;7.25;;;;;;;5.13;92.54;98818.09;4074009;29;20214;-83
2022/01/20 07:21:43;;;;;;;11.05;7.05;;;;;;;5.14;92.60;98822.34;4079230;29;20218;-82
2022/01/20 07:23:49;;;;;;;10.82;7.32;;;;;;;5.14;93.47;98825.78;4063710;29;20210;-81
2022/01/20 07:25:52;;;;;;;9.20;6.97;;;;;;;5.18;92.87;98840.25;4069757;29;20219;-83
2022/01/20 07:27:57;;;;;;;14.35;8.23;;;;;;;5.20;93.58;98850.56;4076003;29;20202;-82
2022/01/20 07:30:09;;;;;;;11.50;6.22;;;;;;;5.22;92.90;98854.78;4074960;29;20207;-82
2022/01/20 07:32:14;;;;;;;10.93;6.60;;;;;;;5.26;93.13;98864.13;4074824;29;20206;-82
2022/01/20 07:34:17;;;;;;;9.80;6.65;;;;;;;5.25;93.24;98857.25;4056746;29;20263;-81
2022/01/20 07:36:20;;;;;;;9.02;6.40;;;;;;;5.26;92.98;98858.97;4077705;29;20225;-81
2022/01/20 07:38:24;;;;;;;10.10;6.30;;;;;;;5.25;92.30;98864.19;4057970;29;20215;-82
2022/01/20 07:40:27;;;;;;;9.77;5.97;;;;;;;5.22;92.04;98872.03;4061614;29;20251;-82
2022/01/20 07:42:30;;;;;;;9.35;6.80;;;;;;;5.22;92.31;98866.88;4063455;29;20302;-82
2022/01/20 07:44:56;;;;;;;10.15;6.63;;;;;;;5.19;92.03;98877.31;4052726;29;20218;-83
2022/01/20 07:47:11;;;;;;;9.15;5.65;;;;;;;5.20;91.72;98866.94;4081106;29;20624;-82
2022/01/20 07:49:17;;;;;;;14.00;6.60;;;;;;;5.21;92.50;98871.19;4058438;29;20215;-82
2022/01/20 07:51:21;;;;;;;10.20;6.53;;;;;;;5.19;92.29;98865.22;4070399;29;20218;-82
2022/01/20 07:53:24;;;;;;;9.90;5.78;;;;;;;5.23;91.30;98871.13;4060321;29;20237;-81
2022/01/20 07:55:27;;;;;;;9.75;6.20;;;;;;;5.20;91.48;98887.59;4054746;29;20714;-82
2022/01/20 07:57:30;;;;;;;10.98;7.00;;;;;;;5.23;92.13;98881.47;4074903;29;20214;-82
2022/01/20 07:59:34;;;;;;;7.75;5.20;;;;;;;5.25;92.12;98890.88;4082834;29;20251;-82
2022/01/20 08:01:38;;;;;;;8.82;5.88;;;;;;;5.25;91.32;98890.03;4054604;29;20904;-81
2022/01/20 08:03:43;;;;;;;11.15;6.00;;;;;;;5.24;91.60;98886.59;4077224;29;20790;-82
2022/01/20 08:05:51;;;;;;;8.10;5.50;;;;;;;5.22;91.73;98890.97;4077096;29;20216;-82
2022/01/20 08:07:58;;;;;;;7.68;5.65;;;;;;;5.26;91.95;98892.56;4062397;29;20636;-83
2022/01/20 08:10:02;;;;;;;10.43;5.35;;;;;;;5.26;91.38;98894.28;4062419;29;20764;-83
2022/01/20 08:12:08;;;;;;;14.80;5.88;;;;;;;5.19;91.70;98896.25;4068996;29;20243;-83
2022/01/20 08:14:20;;;;;;;10.93;6.22;;;;;;;5.24;91.82;98902.09;4078922;29;20249;-83
2022/01/20 08:16:24;;;;;;;9.82;5.32;;;;;;;5.28;90.85;98893.34;4065026;29;20222;-82
2022/01/20 08:18:27;;;;;;;8.82;5.43;;;;;;;5.27;90.55;98904.56;4062548;29;20223;-82
2022/01/20 08:20:30;;;;;;;8.27;5.70;;;;;;;5.24;91.19;98898.69;4072295;29;20211;-82
2022/01/20 08:22:38;;;;;;;11.32;5.93;;;;;;;5.22;91.63;98901.31;4056793;29;20215;-83
2022/01/20 08:24:43;;;;;;;9.30;5.50;;;;;;;5.23;90.88;98910.78;4054308;29;20270;-84
2022/01/20 08:26:46;;;;;;;8.68;5.75;;;;;;;5.24;91.02;98909.03;4075083;29;20211;-82
2022/01/20 08:28:50;;;;;;;10.05;6.40;;;;;;;5.33;91.07;98913.88;4078763;29;20211;-82
2022/01/20 08:30:54;;;;;;;12.32;5.90;;;;;;;5.38;91.45;98911.97;4076825;29;20222;-82
2022/01/20 08:32:59;;;;;;;13.38;6.20;;;;;;;5.42;91.18;98927.31;4064857;29;20685;-82
2022/01/20 08:35:18;;;;;;;12.05;7.13;;;;;;;5.42;90.54;98924.75;4093082;29;20230;-83
2022/01/20 08:37:28;;;;;;;9.00;6.13;;;;;;;5.42;91.45;98923.91;4070117;29;20723;-83
2022/01/20 08:39:42;;;;;;;12.60;6.40;;;;;;;5.45;90.48;98924.63;4071560;29;20199;-82
2022/01/20 08:41:45;;;;;;;13.25;6.80;;;;;;;5.45;90.70;98929.81;4075764;29;20955;-81
2022/01/20 08:43:49;;;;;;;13.00;6.80;;;;;;;5.45;91.11;98929.81;4075932;29;20301;-82
2022/01/20 08:45:52;;;;;;;10.18;6.82;;;;;;;5.46;91.71;98923.75;4065049;29;20216;-83
2022/01/20 08:47:59;;;;;;;11.40;7.10;;;;;;;5.50;91.99;98921.88;4078724;29;20207;-81
2022/01/20 08:50:19;;;;;;;11.00;7.30;;;;;;;5.55;91.44;98917.38;4078573;29;20575;-81
2022/01/20 08:52:22;;;;;;;11.18;6.75;;;;;;;5.59;91.42;98924.16;4068154;29;20668;-81
2022/01/20 08:54:28;;;;;;;15.35;7.88;;;;;;;5.60;90.81;98918.94;4077962;29;20317;-82
2022/01/20 08:56:42;;;;;;;11.70;7.70;;;;;;;5.63;90.66;98929.16;4062527;29;20208;-81
2022/01/20 08:58:46;;;;;;;10.15;6.95;;;;;;;5.63;90.49;98931.75;4067087;29;20668;-81
2022/01/20 09:00:49;;;;;;;10.48;6.60;;;;;;;5.57;90.75;98929.38;4075104;29;20219;-81
2022/01/20 09:02:53;;;;;;;10.98;6.80;;;;;;;5.54;91.17;98939.00;4082149;29;20832;-81
2022/01/20 09:04:56;;;;;;;11.30;6.97;;;;;;;5.54;91.20;98942.41;4057161;29;20197;-82
2022/01/20 09:07:11;;;;;;;9.77;6.80;;;;;;;5.56;90.98;98945.78;4065290;29;20220;-82
2022/01/20 09:09:17;;;;;;;8.73;6.75;;;;;;;5.55;90.94;98951.00;4077927;29;20218;-82
2022/01/20 09:11:23;;;;;;;12.70;7.32;;;;;;;5.55;91.32;98957.06;4082514;29;20261;-82
2022/01/20 09:15:54;;;;;;;12.73;7.50;;;;;;;5.68;91.09;98933.28;4067628;29;20215;-82
2022/01/20 09:18:10;;;;;;;9.07;6.50;;;;;;;5.72;90.88;98939.19;4082298;29;20754;-83
2022/01/20 09:20:16;;;;;;;10.65;6.75;;;;;;;5.80;90.92;98947.53;4096009;29;20211;-83
2022/01/20 09:22:20;;;;;;;13.75;7.47;;;;;;;5.87;90.35;98956.78;4082265;29;20262;-81
2022/01/20 09:24:26;;;;;;;12.07;7.68;;;;;;;5.83;90.19;98947.44;4061939;29;20267;-80
2022/01/20 09:26:30;;;;;;;11.07;7.18;;;;;;;5.87;90.30;98943.84;4062732;29;20215;-81
2022/01/20 09:28:37;;;;;;;11.30;7.00;;;;;;;5.88;90.22;98941.22;4075262;29;20215;-82
2022/01/20 09:30:41;;;;;;;14.75;7.88;;;;;;;5.92;90.15;98941.94;4074792;29;20204;-82
2022/01/20 09:32:53;;;;;;;16.67;7.82;;;;;;;5.92;89.96;98941.94;4088950;29;20212;-82
2022/01/20 09:34:57;;;;;;;16.25;10.10;;;;;;;5.93;90.22;98941.88;4076542;29;20306;-82
2022/01/20 09:37:00;;;;;;;10.95;8.25;;;;;;;5.99;90.24;98930.47;4065934;29;20212;-82
2022/01/20 09:39:04;;;;;;;12.63;7.75;;;;;;;6.01;89.82;98928.66;4072933;29;20223;-83
2022/01/20 09:41:17;;;;;;;9.20;7.28;;;;;;;6.01;89.42;98918.28;4062582;29;20728;-82
2022/01/20 09:43:21;;;;;;;15.07;6.90;;;;;;;6.00;89.85;98916.59;4060931;29;20294;-82
2022/01/20 09:45:29;;;;;;;12.02;7.03;;;;;;;6.04;89.88;98905.25;4069085;29;20219;-82
2022/01/20 09:47:32;;;;;;;11.88;6.88;;;;;;;6.09;89.91;98925.72;4071572;29;20587;-82
2022/01/20 09:49:41;;;;;;;15.15;7.53;;;;;;;6.12;88.71;98915.25;4076297;29;20238;-82
2022/01/20 09:51:56;;;;;;;15.65;7.47;;;;;;;6.21;89.06;98922.69;4062849;29;20246;-82
2022/01/20 09:54:09;;;;;;;10.77;6.72;;;;;;;6.35;88.43;98923.00;4077021;29;20215;-82
2022/01/20 09:56:13;;;;;;;13.82;6.63;;;;;;;6.41;88.28;98922.75;4069932;29;20199;-82
2022/01/20 09:58:17;;;;;;;17.73;8.30;;;;;;;6.45;88.54;98926.06;4070718;29;20294;-82
2022/01/20 10:00:21;;;;;;;12.43;6.70;;;;;;;6.48;88.18;98918.16;4071413;29;20206;-82
2022/01/20 10:02:27;;;;;;;8.63;6.40;;;;;;;6.50;87.64;98921.56;4073764;29;20664;-82
2022/01/20 10:04:35;;;;;;;11.38;6.97;;;;;;;6.54;87.24;98929.16;4072972;29;20568;-82
2022/01/20 10:07:01;;;;;;;10.15;6.15;;;;;;;6.51;87.37;98928.41;4076594;29;20633;-82
2022/01/20 10:09:08;;;;;;;14.63;6.45;;;;;;;6.51;86.91;98931.88;4075115;29;20297;-82
2022/01/20 10:11:41;;;;;;;8.93;6.32;;;;;;;6.46;86.95;98938.94;4071689;29;20235;-82
2022/01/20 10:13:59;;;;;;;12.80;6.53;;;;;;;6.49;87.19;98930.22;4073305;29;20668;-82
2022/01/20 10:16:25;;;;;;;14.38;6.43;;;;;;;6.43;87.37;98939.06;4072675;29;20223;-82
2022/01/20 10:18:35;;;;;;;10.60;6.55;;;;;;;6.42;87.92;98940.00;4075052;29;20762;-82
2022/01/20 10:20:57;;;;;;;12.82;6.88;;;;;;;6.45;87.20;98949.38;4078269;29;20222;-82
2022/01/20 10:23:36;;;;;;;14.70;6.00;;;;;;;6.47;87.35;98945.84;4068021;29;20215;-81
2022/01/20 10:26:13;;;;;;;10.20;6.60;;;;;;;6.45;86.80;98950.25;4072240;29;20251;-82
2022/01/20 10:28:24;;;;;;;9.00;5.70;;;;;;;6.52;86.41;98954.25;4087521;29;21064;-82
2022/01/20 10:30:30;;;;;;;15.00;6.10;;;;;;;6.64;87.54;98939.06;4086318;29;20676;-82
2022/01/20 10:32:40;;;;;;;11.98;5.60;;;;;;;6.85;87.66;98940.00;4076365;29;20597;-82
2022/01/20 10:34:44;;;;;;;10.38;5.40;;;;;;;6.91;85.80;98935.38;4069511;29;20604;-82
2022/01/20 10:36:56;;;;;;;13.98;6.45;;;;;;;6.86;85.47;98936.50;4076635;29;20215;-82
2022/01/20 10:39:07;;;;;;;11.10;6.25;;;;;;;6.86;86.15;98934.75;4059747;29;20294;-82
2022/01/20 10:41:11;;;;;;;16.77;6.75;;;;;;;6.93;86.38;98931.00;4085745;29;20226;-82
2022/01/20 10:43:22;;;;;;;13.60;6.75;;;;;;;6.95;86.03;98928.34;4073964;29;20675;-82
2022/01/20 10:45:28;;;;;;;13.65;5.15;;;;;;;6.90;85.18;98928.53;4083266;29;20619;-82
2022/01/20 10:47:33;;;;;;;11.10;5.65;;;;;;;6.82;84.83;98927.97;4071753;29;20662;-82